Terminal Aerodrome Forecast
Issued by NWS

Home | Current Version | Previous Version | Text Only | Print | Product List | Glossary On
Versions: 1 2 3 4 5 6 7 8 9 10 11 12 13 14 15
000
FTUS45 KRIW 161100
TAFWRL
TAF
KWRL 161125Z 1612/1712 VRB05KT P6SM BKN080
     FM161500 VRB05KT P6SM FEW110 SCT200
     FM162100 02007KT P6SM SCT060 BKN100
     FM170300 15006KT P6SM BKN100=

USA.gov is the U.S. government's official web portal to all federal, state and local government web resources and services.